sensor_id;sensor_type;location;lat;lon;timestamp;temperature;humidity
67358;HTU21D;54240;51.096;5.878;2023-04-24T00:00:20;10.34;-6.00
67358;HTU21D;54240;51.096;5.878;2023-04-24T00:02:46;10.31;-6.00
67358;HTU21D;54240;51.096;5.878;2023-04-24T00:05:14;10.24;-6.00
67358;HTU21D;54240;51.096;5.878;2023-04-24T00:07:42;10.36;-6.00
67358;HTU21D;54240;51.096;5.878;2023-04-24T00:10:08;10.29;-6.00
67358;HTU21D;54240;51.096;5.878;2023-04-24T00:12:35;10.31;-6.00
67358;HTU21D;54240;51.096;5.878;2023-04-24T00:15:01;10.27;-6.00
67358;HTU21D;54240;51.096;5.878;2023-04-24T00:17:27;10.26;-6.00
67358;HTU21D;54240;51.096;5.878;2023-04-24T00:19:53;10.29;-6.00
67358;HTU21D;54240;51.096;5.878;2023-04-24T00:22:27;10.22;-6.00
67358;HTU21D;54240;51.096;5.878;2023-04-24T00:24:54;10.20;-6.00
67358;HTU21D;54240;51.096;5.878;2023-04-24T00:27:20;10.18;-6.00
67358;HTU21D;54240;51.096;5.878;2023-04-24T00:29:46;10.26;-6.00
67358;HTU21D;54240;51.096;5.878;2023-04-24T00:32:12;10.25;-6.00
67358;HTU21D;54240;51.096;5.878;2023-04-24T00:34:38;10.37;-6.00
67358;HTU21D;54240;51.096;5.878;2023-04-24T00:37:04;10.14;-6.00
67358;HTU21D;54240;51.096;5.878;2023-04-24T00:39:31;10.23;-6.00
67358;HTU21D;54240;51.096;5.878;2023-04-24T00:41:57;10.10;-6.00
67358;HTU21D;54240;51.096;5.878;2023-04-24T00:44:23;10.10;-6.00
67358;HTU21D;54240;51.096;5.878;2023-04-24T00:46:49;10.08;-6.00
67358;HTU21D;54240;51.096;5.878;2023-04-24T00:49:23;10.20;-6.00
67358;HTU21D;54240;51.096;5.878;2023-04-24T00:51:50;10.19;-6.00
67358;HTU21D;54240;51.096;5.878;2023-04-24T00:54:17;10.09;-6.00
67358;HTU21D;54240;51.096;5.878;2023-04-24T00:56:44;10.18;-6.00
67358;HTU21D;54240;51.096;5.878;2023-04-24T00:59:16;9.97;-6.00
67358;HTU21D;54240;51.096;5.878;2023-04-24T01:01:43;10.00;-6.00
67358;HTU21D;54240;51.096;5.878;2023-04-24T01:04:09;10.06;-6.00
67358;HTU21D;54240;51.096;5.878;2023-04-24T01:06:39;10.07;-6.00
67358;HTU21D;54240;51.096;5.878;2023-04-24T01:09:06;10.03;-6.00
67358;HTU21D;54240;51.096;5.878;2023-04-24T01:11:36;10.05;-6.00
67358;HTU21D;54240;51.096;5.878;2023-04-24T01:14:02;10.04;-6.00
67358;HTU21D;54240;51.096;5.878;2023-04-24T01:16:28;9.97;-6.00
67358;HTU21D;54240;51.096;5.878;2023-04-24T01:18:54;9.94;-6.00
67358;HTU21D;54240;51.096;5.878;2023-04-24T01:21:20;9.95;-6.00
67358;HTU21D;54240;51.096;5.878;2023-04-24T01:23:47;10.03;-6.00
67358;HTU21D;54240;51.096;5.878;2023-04-24T01:26:16;9.94;-6.00
67358;HTU21D;54240;51.096;5.878;2023-04-24T01:28:42;10.07;-6.00
67358;HTU21D;54240;51.096;5.878;2023-04-24T01:31:08;9.98;-6.00
67358;HTU21D;54240;51.096;5.878;2023-04-24T01:33:34;10.10;-6.00
67358;HTU21D;54240;51.096;5.878;2023-04-24T01:36:00;10.22;-6.00
67358;HTU21D;54240;51.096;5.878;2023-04-24T01:38:27;9.98;-6.00
67358;HTU21D;54240;51.096;5.878;2023-04-24T01:40:52;9.97;-6.00
67358;HTU21D;54240;51.096;5.878;2023-04-24T01:43:18;9.96;-6.00
67358;HTU21D;54240;51.096;5.878;2023-04-24T01:45:45;10.00;-6.00
67358;HTU21D;54240;51.096;5.878;2023-04-24T01:48:12;9.99;-6.00
67358;HTU21D;54240;51.096;5.878;2023-04-24T01:50:39;9.91;-6.00
67358;HTU21D;54240;51.096;5.878;2023-04-24T01:53:05;9.92;-6.00
67358;HTU21D;54240;51.096;5.878;2023-04-24T01:55:31;9.94;-6.00
67358;HTU21D;54240;51.096;5.878;2023-04-24T01:57:59;9.99;-6.00
67358;HTU21D;54240;51.096;5.878;2023-04-24T02:00:25;9.94;-6.00
67358;HTU21D;54240;51.096;5.878;2023-04-24T02:02:52;9.92;-6.00
67358;HTU21D;54240;51.096;5.878;2023-04-24T02:05:18;10.01;-6.00
67358;HTU21D;54240;51.096;5.878;2023-04-24T02:07:45;9.91;-6.00
67358;HTU21D;54240;51.096;5.878;2023-04-24T02:10:11;9.93;-6.00
67358;HTU21D;54240;51.096;5.878;2023-04-24T02:12:41;9.98;-6.00
67358;HTU21D;54240;51.096;5.878;2023-04-24T02:15:07;9.94;-6.00
67358;HTU21D;54240;51.096;5.878;2023-04-24T02:17:36;10.04;-6.00
67358;HTU21D;54240;51.096;5.878;2023-04-24T02:20:04;9.93;-6.00
67358;HTU21D;54240;51.096;5.878;2023-04-24T02:22:31;9.83;-6.00
67358;HTU21D;54240;51.096;5.878;2023-04-24T02:24:57;9.92;-6.00
67358;HTU21D;54240;51.096;5.878;2023-04-24T02:27:23;10.01;-6.00
67358;HTU21D;54240;51.096;5.878;2023-04-24T02:29:49;9.81;-6.00
67358;HTU21D;54240;51.096;5.878;2023-04-24T02:32:17;10.01;-6.00
67358;HTU21D;54240;51.096;5.878;2023-04-24T02:34:43;9.95;-6.00
67358;HTU21D;54240;51.096;5.878;2023-04-24T02:37:09;9.98;-6.00
67358;HTU21D;54240;51.096;5.878;2023-04-24T02:39:35;10.10;-6.00
67358;HTU21D;54240;51.096;5.878;2023-04-24T02:42:02;10.07;-6.00
67358;HTU21D;54240;51.096;5.878;2023-04-24T02:44:27;10.11;-6.00
67358;HTU21D;54240;51.096;5.878;2023-04-24T02:46:53;10.18;-6.00
67358;HTU21D;54240;51.096;5.878;2023-04-24T02:49:19;10.13;-6.00
67358;HTU21D;54240;51.096;5.878;2023-04-24T02:51:45;10.08;-6.00
67358;HTU21D;54240;51.096;5.878;2023-04-24T02:54:11;10.00;-6.00
67358;HTU21D;54240;51.096;5.878;2023-04-24T02:56:37;10.01;-6.00
67358;HTU21D;54240;51.096;5.878;2023-04-24T02:59:04;9.94;-6.00
67358;HTU21D;54240;51.096;5.878;2023-04-24T03:01:30;9.83;-6.00
67358;HTU21D;54240;51.096;5.878;2023-04-24T03:03:56;9.89;-6.00
67358;HTU21D;54240;51.096;5.878;2023-04-24T03:06:22;9.92;-6.00
67358;HTU21D;54240;51.096;5.878;2023-04-24T03:08:48;9.85;-6.00
67358;HTU21D;54240;51.096;5.878;2023-04-24T03:11:14;9.83;-6.00
67358;HTU21D;54240;51.096;5.878;2023-04-24T03:13:41;9.85;-6.00
67358;HTU21D;54240;51.096;5.878;2023-04-24T03:16:07;9.88;-6.00
67358;HTU21D;54240;51.096;5.878;2023-04-24T03:18:32;9.85;-6.00
67358;HTU21D;54240;51.096;5.878;2023-04-24T03:20:58;9.74;-6.00
67358;HTU21D;54240;51.096;5.878;2023-04-24T03:23:25;9.71;-6.00
67358;HTU21D;54240;51.096;5.878;2023-04-24T03:25:51;9.79;-6.00
67358;HTU21D;54240;51.096;5.878;2023-04-24T03:28:18;9.80;-6.00
67358;HTU21D;54240;51.096;5.878;2023-04-24T03:30:51;9.84;-6.00
67358;HTU21D;54240;51.096;5.878;2023-04-24T03:33:18;9.90;-6.00
67358;HTU21D;54240;51.096;5.878;2023-04-24T03:35:53;9.74;-6.00
67358;HTU21D;54240;51.096;5.878;2023-04-24T03:38:19;9.77;-6.00
67358;HTU21D;54240;51.096;5.878;2023-04-24T03:40:55;9.78;-6.00
67358;HTU21D;54240;51.096;5.878;2023-04-24T03:43:33;9.70;-6.00
67358;HTU21D;54240;51.096;5.878;2023-04-24T03:46:00;9.64;-6.00
67358;HTU21D;54240;51.096;5.878;2023-04-24T03:48:27;9.75;-6.00
67358;HTU21D;54240;51.096;5.878;2023-04-24T03:50:53;9.69;-6.00
67358;HTU21D;54240;51.096;5.878;2023-04-24T03:53:19;9.49;-6.00
67358;HTU21D;54240;51.096;5.878;2023-04-24T03:55:46;9.40;-6.00
67358;HTU21D;54240;51.096;5.878;2023-04-24T03:58:13;9.22;-6.00
67358;HTU21D;54240;51.096;5.878;2023-04-24T04:00:42;9.20;-6.00
67358;HTU21D;54240;51.096;5.878;2023-04-24T04:03:28;9.11;-6.00
67358;HTU21D;54240;51.096;5.878;2023-04-24T04:05:54;9.01;-6.00
67358;HTU21D;54240;51.096;5.878;2023-04-24T04:08:20;8.95;-6.00
67358;HTU21D;54240;51.096;5.878;2023-04-24T04:10:47;8.82;-6.00
67358;HTU21D;54240;51.096;5.878;2023-04-24T04:13:13;8.83;-6.00
67358;HTU21D;54240;51.096;5.878;2023-04-24T04:15:40;8.76;-6.00
67358;HTU21D;54240;51.096;5.878;2023-04-24T04:18:05;8.68;-6.00
67358;HTU21D;54240;51.096;5.878;2023-04-24T04:20:32;8.73;-6.00
67358;HTU21D;54240;51.096;5.878;2023-04-24T04:22:58;8.70;-6.00
67358;HTU21D;54240;51.096;5.878;2023-04-24T04:25:36;8.67;-6.00
67358;HTU21D;54240;51.096;5.878;2023-04-24T04:28:02;8.61;-6.00
67358;HTU21D;54240;51.096;5.878;2023-04-24T04:30:28;8.58;-6.00
67358;HTU21D;54240;51.096;5.878;2023-04-24T04:33:01;8.59;-6.00
67358;HTU21D;54240;51.096;5.878;2023-04-24T04:35:26;8.74;-6.00
67358;HTU21D;54240;51.096;5.878;2023-04-24T04:37:53;8.67;-6.00
67358;HTU21D;54240;51.096;5.878;2023-04-24T04:40:39;8.71;-6.00
67358;HTU21D;54240;51.096;5.878;2023-04-24T04:43:06;8.86;-6.00
67358;HTU21D;54240;51.096;5.878;2023-04-24T04:45:39;8.87;-6.00
67358;HTU21D;54240;51.096;5.878;2023-04-24T04:48:32;8.76;-6.00
67358;HTU21D;54240;51.096;5.878;2023-04-24T04:51:01;8.73;-6.00
67358;HTU21D;54240;51.096;5.878;2023-04-24T04:53:27;8.90;-6.00
67358;HTU21D;54240;51.096;5.878;2023-04-24T04:55:53;8.82;-6.00
67358;HTU21D;54240;51.096;5.878;2023-04-24T04:58:23;8.91;-6.00
67358;HTU21D;54240;51.096;5.878;2023-04-24T05:00:53;8.95;-6.00
67358;HTU21D;54240;51.096;5.878;2023-04-24T05:03:32;8.83;-6.00
67358;HTU21D;54240;51.096;5.878;2023-04-24T05:06:03;8.88;-6.00
67358;HTU21D;54240;51.096;5.878;2023-04-24T05:08:33;8.80;-6.00
67358;HTU21D;54240;51.096;5.878;2023-04-24T05:10:59;8.76;-6.00
67358;HTU21D;54240;51.096;5.878;2023-04-24T05:13:27;8.75;-6.00
67358;HTU21D;54240;51.096;5.878;2023-04-24T05:15:53;8.62;-6.00
67358;HTU21D;54240;51.096;5.878;2023-04-24T05:18:19;8.59;-6.00
67358;HTU21D;54240;51.096;5.878;2023-04-24T05:20:46;8.62;-6.00
67358;HTU21D;54240;51.096;5.878;2023-04-24T05:23:12;8.66;-6.00
67358;HTU21D;54240;51.096;5.878;2023-04-24T05:25:41;8.58;-6.00
67358;HTU21D;54240;51.096;5.878;2023-04-24T05:28:10;8.51;-6.00
67358;HTU21D;54240;51.096;5.878;2023-04-24T05:30:37;8.42;-6.00
67358;HTU21D;54240;51.096;5.878;2023-04-24T05:33:03;8.38;-4.63
67358;HTU21D;54240;51.096;5.878;2023-04-24T05:35:32;8.48;-6.00
67358;HTU21D;54240;51.096;5.878;2023-04-24T05:37:58;8.42;-6.00
67358;HTU21D;54240;51.096;5.878;2023-04-24T05:40:23;8.37;12.50
67358;HTU21D;54240;51.096;5.878;2023-04-24T05:42:49;7.47;118.99
67358;HTU21D;54240;51.096;5.878;2023-04-24T05:45:18;8.22;-6.00
67358;HTU21D;54240;51.096;5.878;2023-04-24T05:47:44;8.30;-6.00
67358;HTU21D;54240;51.096;5.878;2023-04-24T05:50:11;8.33;-6.00
67358;HTU21D;54240;51.096;5.878;2023-04-24T05:52:37;8.36;-6.00
67358;HTU21D;54240;51.096;5.878;2023-04-24T05:55:10;8.38;-6.00
67358;HTU21D;54240;51.096;5.878;2023-04-24T05:57:38;8.39;-6.00
67358;HTU21D;54240;51.096;5.878;2023-04-24T06:00:05;8.51;-6.00
67358;HTU21D;54240;51.096;5.878;2023-04-24T06:02:39;8.32;-6.00
67358;HTU21D;54240;51.096;5.878;2023-04-24T06:05:07;8.17;-6.00
67358;HTU21D;54240;51.096;5.878;2023-04-24T06:07:34;8.16;-6.00
67358;HTU21D;54240;51.096;5.878;2023-04-24T06:10:03;8.19;-6.00
67358;HTU21D;54240;51.096;5.878;2023-04-24T06:12:36;8.21;-6.00
67358;HTU21D;54240;51.096;5.878;2023-04-24T06:15:07;8.15;-6.00
67358;HTU21D;54240;51.096;5.878;2023-04-24T06:17:53;8.02;-6.00
67358;HTU21D;54240;51.096;5.878;2023-04-24T06:20:20;8.03;-6.00
67358;HTU21D;54240;51.096;5.878;2023-04-24T06:22:46;8.07;-6.00
67358;HTU21D;54240;51.096;5.878;2023-04-24T06:25:12;8.06;-6.00
67358;HTU21D;54240;51.096;5.878;2023-04-24T06:27:38;8.09;-6.00
67358;HTU21D;54240;51.096;5.878;2023-04-24T06:30:04;8.03;-6.00
67358;HTU21D;54240;51.096;5.878;2023-04-24T06:32:30;8.19;-6.00
67358;HTU21D;54240;51.096;5.878;2023-04-24T06:34:58;8.30;-6.00
67358;HTU21D;54240;51.096;5.878;2023-04-24T06:37:24;8.35;-6.00
67358;HTU21D;54240;51.096;5.878;2023-04-24T06:39:50;8.39;-6.00
67358;HTU21D;54240;51.096;5.878;2023-04-24T06:42:22;7.82;-6.00
67358;HTU21D;54240;51.096;5.878;2023-04-24T06:44:50;7.77;28.23
67358;HTU21D;54240;51.096;5.878;2023-04-24T06:47:18;7.69;79.14
67358;HTU21D;54240;51.096;5.878;2023-04-24T06:49:44;7.43;118.99
67358;HTU21D;54240;51.096;5.878;2023-04-24T06:52:10;7.16;118.99
67358;HTU21D;54240;51.096;5.878;2023-04-24T06:54:36;6.98;118.99
67358;HTU21D;54240;51.096;5.878;2023-04-24T06:57:02;6.80;118.99
67358;HTU21D;54240;51.096;5.878;2023-04-24T06:59:29;6.97;118.99
67358;HTU21D;54240;51.096;5.878;2023-04-24T07:01:56;6.51;118.99
67358;HTU21D;54240;51.096;5.878;2023-04-24T07:04:22;6.67;118.99
67358;HTU21D;54240;51.096;5.878;2023-04-24T07:06:48;6.85;118.99
67358;HTU21D;54240;51.096;5.878;2023-04-24T07:09:18;6.68;118.99
67358;HTU21D;54240;51.096;5.878;2023-04-24T07:11:45;6.84;118.99
67358;HTU21D;54240;51.096;5.878;2023-04-24T07:14:11;6.96;118.99
67358;HTU21D;54240;51.096;5.878;2023-04-24T07:16:37;7.07;118.99
67358;HTU21D;54240;51.096;5.878;2023-04-24T07:19:03;7.25;118.99
67358;HTU21D;54240;51.096;5.878;2023-04-24T07:21:29;7.23;118.99
67358;HTU21D;54240;51.096;5.878;2023-04-24T07:23:58;7.17;118.99
67358;HTU21D;54240;51.096;5.878;2023-04-24T07:26:25;7.08;118.99
67358;HTU21D;54240;51.096;5.878;2023-04-24T07:28:51;6.88;118.99
67358;HTU21D;54240;51.096;5.878;2023-04-24T07:31:17;7.02;118.99
67358;HTU21D;54240;51.096;5.878;2023-04-24T07:33:43;6.91;118.99
67358;HTU21D;54240;51.096;5.878;2023-04-24T07:36:09;6.93;118.99
67358;HTU21D;54240;51.096;5.878;2023-04-24T07:38:42;7.05;118.99
67358;HTU21D;54240;51.096;5.878;2023-04-24T07:41:07;7.00;118.99
67358;HTU21D;54240;51.096;5.878;2023-04-24T07:43:35;6.89;118.99
67358;HTU21D;54240;51.096;5.878;2023-04-24T07:46:01;6.91;118.99
67358;HTU21D;54240;51.096;5.878;2023-04-24T07:48:27;6.93;118.99
67358;HTU21D;54240;51.096;5.878;2023-04-24T07:50:53;6.73;118.99
67358;HTU21D;54240;51.096;5.878;2023-04-24T07:53:19;6.85;118.99
67358;HTU21D;54240;51.096;5.878;2023-04-24T07:55:45;6.83;118.99
67358;HTU21D;54240;51.096;5.878;2023-04-24T07:58:11;6.71;118.99
67358;HTU21D;54240;51.096;5.878;2023-04-24T08:00:37;6.87;118.99
67358;HTU21D;54240;51.096;5.878;2023-04-24T08:03:03;6.83;118.99
67358;HTU21D;54240;51.096;5.878;2023-04-24T08:05:29;6.94;118.99
67358;HTU21D;54240;51.096;5.878;2023-04-24T08:07:55;7.11;118.99
67358;HTU21D;54240;51.096;5.878;2023-04-24T08:10:22;7.46;118.99
67358;HTU21D;54240;51.096;5.878;2023-04-24T08:12:48;6.95;118.99
67358;HTU21D;54240;51.096;5.878;2023-04-24T08:15:14;7.26;118.99
67358;HTU21D;54240;51.096;5.878;2023-04-24T08:17:40;7.61;118.99
67358;HTU21D;54240;51.096;5.878;2023-04-24T08:20:09;7.49;118.99
67358;HTU21D;54240;51.096;5.878;2023-04-24T08:22:40;7.67;118.99
67358;HTU21D;54240;51.096;5.878;2023-04-24T08:25:06;7.63;118.99
67358;HTU21D;54240;51.096;5.878;2023-04-24T08:27:32;6.99;118.99
67358;HTU21D;54240;51.096;5.878;2023-04-24T08:29:58;6.78;118.99
67358;HTU21D;54240;51.096;5.878;2023-04-24T08:32:26;6.76;118.99
67358;HTU21D;54240;51.096;5.878;2023-04-24T08:34:55;6.70;118.99
67358;HTU21D;54240;51.096;5.878;2023-04-24T08:37:22;6.81;118.99
67358;HTU21D;54240;51.096;5.878;2023-04-24T08:39:49;6.75;118.99
67358;HTU21D;54240;51.096;5.878;2023-04-24T08:42:17;7.01;118.99
67358;HTU21D;54240;51.096;5.878;2023-04-24T08:44:44;6.89;118.99
67358;HTU21D;54240;51.096;5.878;2023-04-24T08:47:11;7.09;118.99
67358;HTU21D;54240;51.096;5.878;2023-04-24T08:49:38;7.46;118.99
67358;HTU21D;54240;51.096;5.878;2023-04-24T08:52:07;7.59;118.99
67358;HTU21D;54240;51.096;5.878;2023-04-24T08:54:35;7.37;118.99
67358;HTU21D;54240;51.096;5.878;2023-04-24T08:57:02;7.32;118.99
67358;HTU21D;54240;51.096;5.878;2023-04-24T08:59:30;7.20;118.99
67358;HTU21D;54240;51.096;5.878;2023-04-24T09:01:57;7.25;118.99
67358;HTU21D;54240;51.096;5.878;2023-04-24T09:04:25;7.29;118.99
67358;HTU21D;54240;51.096;5.878;2023-04-24T09:06:55;7.42;118.99
67358;HTU21D;54240;51.096;5.878;2023-04-24T09:09:22;7.16;118.99
67358;HTU21D;54240;51.096;5.878;2023-04-24T09:11:52;7.03;118.99
67358;HTU21D;54240;51.096;5.878;2023-04-24T09:14:21;7.04;118.99
67358;HTU21D;54240;51.096;5.878;2023-04-24T09:16:49;7.73;118.99
67358;HTU21D;54240;51.096;5.878;2023-04-24T09:19:17;7.56;118.99
67358;HTU21D;54240;51.096;5.878;2023-04-24T09:21:46;7.92;118.99
67358;HTU21D;54240;51.096;5.878;2023-04-24T09:24:18;8.06;118.99
67358;HTU21D;54240;51.096;5.878;2023-04-24T09:26:46;8.08;118.99
67358;HTU21D;54240;51.096;5.878;2023-04-24T09:29:18;8.36;118.99
67358;HTU21D;54240;51.096;5.878;2023-04-24T09:31:45;8.36;118.99
67358;HTU21D;54240;51.096;5.878;2023-04-24T09:34:11;8.65;118.99
67358;HTU21D;54240;51.096;5.878;2023-04-24T09:36:41;8.76;118.99
67358;HTU21D;54240;51.096;5.878;2023-04-24T09:39:10;8.23;118.99
67358;HTU21D;54240;51.096;5.878;2023-04-24T09:41:54;7.90;118.99
67358;HTU21D;54240;51.096;5.878;2023-04-24T09:44:27;7.93;118.99
67358;HTU21D;54240;51.096;5.878;2023-04-24T09:46:55;7.69;118.99
67358;HTU21D;54240;51.096;5.878;2023-04-24T09:49:27;7.96;118.99
67358;HTU21D;54240;51.096;5.878;2023-04-24T09:52:15;8.22;118.99
67358;HTU21D;54240;51.096;5.878;2023-04-24T09:54:41;8.01;118.99
67358;HTU21D;54240;51.096;5.878;2023-04-24T09:57:08;8.11;118.99
67358;HTU21D;54240;51.096;5.878;2023-04-24T09:59:34;8.23;118.99
67358;HTU21D;54240;51.096;5.878;2023-04-24T10:02:00;8.09;118.99
67358;HTU21D;54240;51.096;5.878;2023-04-24T10:04:28;8.15;118.99
67358;HTU21D;54240;51.096;5.878;2023-04-24T10:06:56;8.39;118.99
67358;HTU21D;54240;51.096;5.878;2023-04-24T10:09:25;8.77;118.99
67358;HTU21D;54240;51.096;5.878;2023-04-24T10:11:53;9.04;118.99
67358;HTU21D;54240;51.096;5.878;2023-04-24T10:14:22;9.25;118.99
67358;HTU21D;54240;51.096;5.878;2023-04-24T10:16:49;9.36;118.99
67358;HTU21D;54240;51.096;5.878;2023-04-24T10:19:17;9.49;118.99
67358;HTU21D;54240;51.096;5.878;2023-04-24T10:21:46;9.52;118.99
67358;HTU21D;54240;51.096;5.878;2023-04-24T10:24:17;9.78;118.99
67358;HTU21D;54240;51.096;5.878;2023-04-24T10:26:45;10.04;118.99
67358;HTU21D;54240;51.096;5.878;2023-04-24T10:29:14;10.42;118.99
67358;HTU21D;54240;51.096;5.878;2023-04-24T10:31:41;10.57;118.99
67358;HTU21D;54240;51.096;5.878;2023-04-24T10:34:09;9.33;118.99
67358;HTU21D;54240;51.096;5.878;2023-04-24T10:36:40;9.26;118.99
67358;HTU21D;54240;51.096;5.878;2023-04-24T10:39:11;9.02;118.99
67358;HTU21D;54240;51.096;5.878;2023-04-24T10:41:38;8.90;118.99
67358;HTU21D;54240;51.096;5.878;2023-04-24T10:44:15;8.80;118.99
67358;HTU21D;54240;51.096;5.878;2023-04-24T10:46:46;9.16;118.99
67358;HTU21D;54240;51.096;5.878;2023-04-24T10:49:16;9.29;118.99
67358;HTU21D;54240;51.096;5.878;2023-04-24T10:54:29;10.03;118.99
67358;HTU21D;54240;51.096;5.878;2023-04-24T10:59:52;9.53;118.99
67358;HTU21D;54240;51.096;5.878;2023-04-24T11:02:38;9.41;118.99
67358;HTU21D;54240;51.096;5.878;2023-04-24T11:05:06;9.17;118.99
67358;HTU21D;54240;51.096;5.878;2023-04-24T11:10:57;9.10;118.99
67358;HTU21D;54240;51.096;5.878;2023-04-24T11:14:00;8.96;118.99
67358;HTU21D;54240;51.096;5.878;2023-04-24T11:16:28;9.30;118.99
67358;HTU21D;54240;51.096;5.878;2023-04-24T11:21:39;9.15;118.99
67358;HTU21D;54240;51.096;5.878;2023-04-24T11:29:22;8.66;118.99
67358;HTU21D;54240;51.096;5.878;2023-04-24T11:32:15;8.73;118.99
67358;HTU21D;54240;51.096;5.878;2023-04-24T11:34:48;8.76;118.99
67358;HTU21D;54240;51.096;5.878;2023-04-24T11:37:14;8.77;118.99
67358;HTU21D;54240;51.096;5.878;2023-04-24T11:39:42;9.02;118.99
67358;HTU21D;54240;51.096;5.878;2023-04-24T11:42:15;9.96;118.99
67358;HTU21D;54240;51.096;5.878;2023-04-24T11:44:42;10.33;118.99
67358;HTU21D;54240;51.096;5.878;2023-04-24T11:47:08;10.65;118.99
67358;HTU21D;54240;51.096;5.878;2023-04-24T11:49:37;10.45;118.99
67358;HTU21D;54240;51.096;5.878;2023-04-24T11:52:04;10.12;118.99
67358;HTU21D;54240;51.096;5.878;2023-04-24T11:54:31;9.96;118.99
67358;HTU21D;54240;51.096;5.878;2023-04-24T11:56:57;10.03;118.99
67358;HTU21D;54240;51.096;5.878;2023-04-24T11:59:23;10.20;118.99
67358;HTU21D;54240;51.096;5.878;2023-04-24T12:01:49;10.22;118.99
67358;HTU21D;54240;51.096;5.878;2023-04-24T12:04:17;10.12;118.99
67358;HTU21D;54240;51.096;5.878;2023-04-24T12:07:02;10.10;118.99
67358;HTU21D;54240;51.096;5.878;2023-04-24T12:10:00;10.12;118.99
67358;HTU21D;54240;51.096;5.878;2023-04-24T12:12:27;10.27;118.99
67358;HTU21D;54240;51.096;5.878;2023-04-24T12:14:56;10.74;118.99
67358;HTU21D;54240;51.096;5.878;2023-04-24T12:17:27;11.11;118.99
67358;HTU21D;54240;51.096;5.878;2023-04-24T12:20:01;11.42;118.99
67358;HTU21D;54240;51.096;5.878;2023-04-24T12:22:43;11.34;118.99
67358;HTU21D;54240;51.096;5.878;2023-04-24T12:25:10;10.96;118.99
67358;HTU21D;54240;51.096;5.878;2023-04-24T12:27:37;11.10;118.99
67358;HTU21D;54240;51.096;5.878;2023-04-24T12:30:11;11.27;118.99
67358;HTU21D;54240;51.096;5.878;2023-04-24T12:32:41;11.53;118.99
67358;HTU21D;54240;51.096;5.878;2023-04-24T12:35:08;11.56;118.99
67358;HTU21D;54240;51.096;5.878;2023-04-24T12:37:34;11.29;118.99
67358;HTU21D;54240;51.096;5.878;2023-04-24T12:42:35;11.36;118.99
67358;HTU21D;54240;51.096;5.878;2023-04-24T12:45:04;11.56;118.99
67358;HTU21D;54240;51.096;5.878;2023-04-24T12:47:31;11.75;118.99
67358;HTU21D;54240;51.096;5.878;2023-04-24T12:49:57;11.99;118.99
67358;HTU21D;54240;51.096;5.878;2023-04-24T12:52:24;11.92;118.99
67358;HTU21D;54240;51.096;5.878;2023-04-24T12:54:56;11.99;118.99
67358;HTU21D;54240;51.096;5.878;2023-04-24T12:57:23;12.01;118.99
67358;HTU21D;54240;51.096;5.878;2023-04-24T12:59:49;12.17;118.99
67358;HTU21D;54240;51.096;5.878;2023-04-24T13:02:16;12.18;118.99
67358;HTU21D;54240;51.096;5.878;2023-04-24T13:04:46;12.42;118.99
67358;HTU21D;54240;51.096;5.878;2023-04-24T13:07:13;12.20;118.99
67358;HTU21D;54240;51.096;5.878;2023-04-24T13:09:41;11.62;118.99
67358;HTU21D;54240;51.096;5.878;2023-04-24T13:12:07;11.53;118.99
67358;HTU21D;54240;51.096;5.878;2023-04-24T13:14:34;11.43;118.99
67358;HTU21D;54240;51.096;5.878;2023-04-24T13:17:00;11.37;118.99
67358;HTU21D;54240;51.096;5.878;2023-04-24T13:19:27;11.68;118.99
67358;HTU21D;54240;51.096;5.878;2023-04-24T13:21:55;11.91;118.99
67358;HTU21D;54240;51.096;5.878;2023-04-24T13:24:22;11.91;118.99
67358;HTU21D;54240;51.096;5.878;2023-04-24T13:26:51;12.15;118.99
67358;HTU21D;54240;51.096;5.878;2023-04-24T13:29:17;11.98;118.99
67358;HTU21D;54240;51.096;5.878;2023-04-24T13:31:43;12.10;118.99
67358;HTU21D;54240;51.096;5.878;2023-04-24T13:34:09;12.38;118.99
67358;HTU21D;54240;51.096;5.878;2023-04-24T13:36:34;12.52;106.61
67358;HTU21D;54240;51.096;5.878;2023-04-24T13:39:02;12.64;85.13
67358;HTU21D;54240;51.096;5.878;2023-04-24T13:41:30;12.69;105.52
67358;HTU21D;54240;51.096;5.878;2023-04-24T13:43:56;12.47;18.95
67358;HTU21D;54240;51.096;5.878;2023-04-24T13:46:22;12.48;0.23
67358;HTU21D;54240;51.096;5.878;2023-04-24T13:48:48;12.63;-6.00
67358;HTU21D;54240;51.096;5.878;2023-04-24T13:51:14;12.74;-6.00
67358;HTU21D;54240;51.096;5.878;2023-04-24T13:53:40;12.63;118.99
67358;HTU21D;54240;51.096;5.878;2023-04-24T13:56:06;12.59;118.99
67358;HTU21D;54240;51.096;5.878;2023-04-24T13:58:32;12.45;118.99
67358;HTU21D;54240;51.096;5.878;2023-04-24T14:00:58;12.69;118.99
67358;HTU21D;54240;51.096;5.878;2023-04-24T14:03:24;12.59;118.99
67358;HTU21D;54240;51.096;5.878;2023-04-24T14:05:50;12.69;118.99
67358;HTU21D;54240;51.096;5.878;2023-04-24T14:08:16;13.02;118.99
67358;HTU21D;54240;51.096;5.878;2023-04-24T14:10:43;13.39;118.99
67358;HTU21D;54240;51.096;5.878;2023-04-24T14:13:09;13.37;118.99
67358;HTU21D;54240;51.096;5.878;2023-04-24T14:15:37;13.55;118.99
67358;HTU21D;54240;51.096;5.878;2023-04-24T14:18:03;13.58;118.99
67358;HTU21D;54240;51.096;5.878;2023-04-24T14:20:30;13.74;118.99
67358;HTU21D;54240;51.096;5.878;2023-04-24T14:22:56;13.48;118.99
67358;HTU21D;54240;51.096;5.878;2023-04-24T14:25:25;13.91;118.99
67358;HTU21D;54240;51.096;5.878;2023-04-24T14:27:51;0.00;0.00
67358;HTU21D;54240;51.096;5.878;2023-04-24T14:30:17;0.00;0.00
67358;HTU21D;54240;51.096;5.878;2023-04-24T14:32:44;0.00;0.00
67358;HTU21D;54240;51.096;5.878;2023-04-24T14:35:10;13.92;118.99
67358;HTU21D;54240;51.096;5.878;2023-04-24T14:37:36;13.34;118.99
67358;HTU21D;54240;51.096;5.878;2023-04-24T14:40:02;13.17;118.99
67358;HTU21D;54240;51.096;5.878;2023-04-24T14:42:29;13.44;118.99
67358;HTU21D;54240;51.096;5.878;2023-04-24T14:44:55;13.56;118.99
67358;HTU21D;54240;51.096;5.878;2023-04-24T14:47:21;13.58;118.99
67358;HTU21D;54240;51.096;5.878;2023-04-24T14:49:50;13.70;118.99
67358;HTU21D;54240;51.096;5.878;2023-04-24T14:52:16;13.46;118.99
67358;HTU21D;54240;51.096;5.878;2023-04-24T14:54:43;14.17;118.99
67358;HTU21D;54240;51.096;5.878;2023-04-24T14:57:09;13.95;118.99
67358;HTU21D;54240;51.096;5.878;2023-04-24T14:59:35;13.92;118.99
67358;HTU21D;54240;51.096;5.878;2023-04-24T15:02:01;13.53;118.99
67358;HTU21D;54240;51.096;5.878;2023-04-24T15:04:28;13.30;118.99
67358;HTU21D;54240;51.096;5.878;2023-04-24T15:06:55;13.51;118.99
67358;HTU21D;54240;51.096;5.878;2023-04-24T15:09:22;13.25;118.99
67358;HTU21D;54240;51.096;5.878;2023-04-24T15:11:49;13.53;118.99
67358;HTU21D;54240;51.096;5.878;2023-04-24T15:14:16;13.90;118.99
67358;HTU21D;54240;51.096;5.878;2023-04-24T15:16:43;14.50;118.99
67358;HTU21D;54240;51.096;5.878;2023-04-24T15:19:09;14.80;118.99
67358;HTU21D;54240;51.096;5.878;2023-04-24T15:21:37;14.51;88.92
67358;HTU21D;54240;51.096;5.878;2023-04-24T15:24:05;14.15;-6.00
67358;HTU21D;54240;51.096;5.878;2023-04-24T15:26:31;14.04;-6.00
67358;HTU21D;54240;51.096;5.878;2023-04-24T15:28:57;14.18;-6.00
67358;HTU21D;54240;51.096;5.878;2023-04-24T15:31:23;13.86;-6.00
67358;HTU21D;54240;51.096;5.878;2023-04-24T15:33:50;13.66;-6.00
67358;HTU21D;54240;51.096;5.878;2023-04-24T15:36:16;13.55;-6.00
67358;HTU21D;54240;51.096;5.878;2023-04-24T15:38:43;13.49;-6.00
67358;HTU21D;54240;51.096;5.878;2023-04-24T15:41:10;13.89;-6.00